Portada
METAR-TAF:

METAR-TAF

Aeropuertos :

Aeropuerto Internacional de Lamezia Terme

Lamezia Terme, Italia

latitud: 38-54N, longitud: 016-15E, altitud: 15 m

Observación

El informe se hizo hace 26 minutos, a las 06:50 UTC
Viento 14 kt del este-noreste
Temperatura 11°C
Humedad 82%
Presión 1015 hPa
Visibilidad 10 km o más
lluvia ligera

METAR: LICA 160650Z AUTO 06014KT 9999 -RA BKN044/// 11/08 Q1015

Hora: 09:16 (07:16 UTC)

Pronóstico

El informe se hizo hace 2 horas y 16 minutos, a las 05:00 UTC
Pronóstico válido del 16 a las 06 UTC al 17 a las 06 UTC
Viento 14 kt del este-noreste
Visibilidad 10 km o más
Nubes dispersas a una altura de 3000 ft
Temporalmente
del 16 a las 06 UTC al 16 a las 18 UTC
Visibilidad: 4000 m
chaparrones de lluvia
Evolucionando progresivamente
del 16 a las 20 UTC al 16 a las 22 UTC
Viento 5 kt con dirección variable

TAF: LICA 160500Z 1606/1706 07014KT 9999 SCT030 TEMPO 1606/1618 4000 SHRA BECMG 1620/1622 VRB05KT

Observaciones y pronósticos meteorológicos de más de 4000 aeropuertos (mensajes METAR y TAF).

Los puntos amarillos y rojos representan las estaciones disponibles.

Ponga el ratón en el punto deseado para ver el nombre de la estación.

Haga clic para ver las observaciones y los pronósticos meteorológicos.

Para cambiar el mapa : haga clic en los botones verdes con una cruz de color negro para hacer un zoom, en el botón verde con un guión para alejar o en las flechas verdes para mapas adyacentes.


METAR-TAF: